»·PEaware :: ASA103 KSEA-KSFO

ASA103 :: KSEA-KSFO

FLIGHT INFORMATION

Flight Status: Arrived
Operator:
Alaska Airlines
More flights by this operator :: More flights under this callsign
Pilot: Andrew C. (28419)
Aircraft: BOEING 737-800
(B738)
More flights by this aircraft type
Origin: KSEA Seattle-Tacoma Intl
United States
Destination: KSFO San Francisco Intl
United States
More flights between these airports :: More routes between these airports
Route: HAROB6 ERAVE Q1 ETCHY MLBEC BDEGA3
File this flight plan on PilotEdge
Remarks: RMK / SIMBRIEF
Altitude:
(Current/Filed)
35,000ft
Speed:
(Current/Filed)
455kts
Departed: 09-Jun-20 06:55 PM
Arrived: 09-Jun-20 08:37 PM
Distance/Time
Traveled:
590nm/1:42
Distance/Time
To Go:
Arrived

Flight Plot

Page will automatically refresh every two minutes.

Flight plan parsing failed; only flown route is shown


Map Options




Map Legend


Flown Route
Filed Route
Departure Airport
Arrival Airport
Navaid (VOR, NDB)
Fix

Horizontal Profiles

Position Reports

Time Latitude Longitude Heading Altitude Ground
Speed
09-Jun-20 18:17 47.449072 -122.301980 219 444ft 0kts
09-Jun-20 18:18 47.449072 -122.301980 219 444ft 0kts
09-Jun-20 18:19 47.449072 -122.301980 219 444ft 0kts
09-Jun-20 18:20 47.449072 -122.301980 219 444ft 0kts
09-Jun-20 18:21 47.449072 -122.301980 219 444ft 0kts
09-Jun-20 18:22 47.449072 -122.301980 219 443ft 0kts
09-Jun-20 18:23 47.449072 -122.301980 219 443ft 0kts
09-Jun-20 18:24 47.449072 -122.301980 220 443ft 0kts
09-Jun-20 18:25 47.449072 -122.301980 220 443ft 0kts
09-Jun-20 18:26 47.449072 -122.301980 220 443ft 0kts
09-Jun-20 18:27 47.449072 -122.301980 220 443ft 0kts
09-Jun-20 18:28 47.449072 -122.301980 220 443ft 0kts
09-Jun-20 18:29 47.449072 -122.301980 220 443ft 0kts
09-Jun-20 18:30 47.449072 -122.301980 220 443ft 0kts
09-Jun-20 18:31 47.449072 -122.301980 220 443ft 0kts
09-Jun-20 18:32 47.449072 -122.301980 220 443ft 0kts
09-Jun-20 18:33 47.449072 -122.301980 220 443ft 0kts
09-Jun-20 18:34 47.449072 -122.301980 220 443ft 0kts
09-Jun-20 18:35 47.449072 -122.301980 220 443ft 0kts
09-Jun-20 18:36 47.449072 -122.301980 220 443ft 0kts
09-Jun-20 18:37 47.449072 -122.301980 220 443ft 0kts
09-Jun-20 18:38 47.449072 -122.301980 220 443ft 0kts
09-Jun-20 18:39 47.449072 -122.301980 219 443ft 0kts
09-Jun-20 18:40 47.449072 -122.301980 219 443ft 0kts
09-Jun-20 18:41 47.449072 -122.301980 219 443ft 0kts
09-Jun-20 18:42 47.449072 -122.301980 219 443ft 0kts
09-Jun-20 18:43 47.449073 -122.301979 220 443ft 0kts
09-Jun-20 18:44 47.449383 -122.301510 253 443ft 2kts
09-Jun-20 18:45 47.449286 -122.300958 311 443ft 0kts
09-Jun-20 18:46 47.449287 -122.300958 311 443ft 0kts
09-Jun-20 18:47 47.449287 -122.300958 311 443ft 0kts
09-Jun-20 18:48 47.450026 -122.302403 305 443ft 8kts
09-Jun-20 18:49 47.451727 -122.306297 0 443ft 19kts
09-Jun-20 18:50 47.457557 -122.306251 358 443ft 20kts
09-Jun-20 18:51 47.463294 -122.306196 349 443ft 15kts
09-Jun-20 18:52 47.463635 -122.309455 269 443ft 0kts
09-Jun-20 18:53 47.463619 -122.310810 256 443ft 5kts
09-Jun-20 18:54 47.445134 -122.310940 180 568ft 167kts
09-Jun-20 18:55 47.392931 -122.311326 183 2670ft 229kts
09-Jun-20 18:56 47.328693 -122.331644 221 6156ft 243kts
09-Jun-20 18:57 47.308414 -122.410977 260 8905ft 261kts
09-Jun-20 18:58 47.309464 -122.540576 270 11126ft 321kts
09-Jun-20 18:59 47.313245 -122.670890 270 13949ft 333kts
09-Jun-20 19:00 47.305328 -122.807680 252 16827ft 344kts
09-Jun-20 19:01 47.270356 -122.940471 249 19379ft 356kts
09-Jun-20 19:02 47.216905 -123.065305 228 21676ft 374kts
09-Jun-20 19:03 47.132402 -123.161752 220 23715ft 389kts
09-Jun-20 19:04 47.044032 -123.257388 220 25486ft 401kts
09-Jun-20 19:05 46.953565 -123.354707 218 27054ft 414kts
09-Jun-20 19:06 46.847280 -123.398753 185 28386ft 447kts
09-Jun-20 19:07 46.720159 -123.395524 184 29707ft 459kts
09-Jun-20 19:08 46.593084 -123.391584 184 31315ft 453kts
09-Jun-20 19:09 46.466345 -123.387663 184 32636ft 456kts
09-Jun-20 19:10 46.339710 -123.383737 183 34119ft 453kts
09-Jun-20 19:11 46.212984 -123.379845 183 35196ft 456kts
09-Jun-20 19:12 46.085558 -123.375941 183 35209ft 455kts
09-Jun-20 19:13 45.959901 -123.372083 183 35210ft 455kts
09-Jun-20 19:14 45.840266 -123.368451 183 35210ft 456kts
09-Jun-20 19:15 45.718333 -123.364748 183 35210ft 455kts
09-Jun-20 19:16 45.600507 -123.361195 183 35210ft 456kts
09-Jun-20 19:17 45.488881 -123.357830 183 35230ft 455kts
09-Jun-20 19:18 45.374288 -123.354397 183 35238ft 458kts
09-Jun-20 19:19 45.246922 -123.350586 182 35237ft 457kts
09-Jun-20 19:20 45.119110 -123.346804 182 35237ft 457kts
09-Jun-20 19:21 44.991899 -123.343046 182 35244ft 457kts
09-Jun-20 19:22 44.867170 -123.339378 182 35247ft 458kts
09-Jun-20 19:23 44.739741 -123.335642 182 35247ft 458kts
09-Jun-20 19:24 44.612102 -123.331920 182 35247ft 456kts
09-Jun-20 19:26 44.484005 -123.328153 182 35247ft 458kts
09-Jun-20 19:27 44.355954 -123.323048 181 35247ft 457kts
09-Jun-20 19:28 44.228056 -123.317905 181 35247ft 457kts
09-Jun-20 19:29 44.100381 -123.312796 181 35246ft 455kts
09-Jun-20 19:30 43.973222 -123.307751 181 35247ft 458kts
09-Jun-20 19:31 43.848998 -123.302807 182 35247ft 451kts
09-Jun-20 19:32 43.722742 -123.297862 182 35220ft 458kts
09-Jun-20 19:33 43.594719 -123.292822 182 35201ft 454kts
09-Jun-20 19:34 43.467372 -123.287847 182 35201ft 455kts
09-Jun-20 19:35 43.339953 -123.282884 182 35201ft 454kts
09-Jun-20 19:36 43.212790 -123.277951 182 35201ft 454kts
09-Jun-20 19:37 43.085868 -123.273053 182 35233ft 453kts
09-Jun-20 19:38 42.959437 -123.268193 182 35255ft 452kts
09-Jun-20 19:39 42.836371 -123.263480 182 35256ft 451kts
09-Jun-20 19:40 42.710265 -123.258640 182 35256ft 451kts
09-Jun-20 19:41 42.584959 -123.253823 182 35243ft 451kts
09-Jun-20 19:42 42.459583 -123.249149 182 35237ft 450kts
09-Jun-20 19:42 42.355233 -123.245414 182 35237ft 450kts
09-Jun-20 19:43 42.229950 -123.240843 182 35237ft 449kts
09-Jun-20 19:45 42.085139 -123.235500 183 35237ft 449kts
09-Jun-20 19:45 41.980341 -123.231673 183 35242ft 449kts
09-Jun-20 19:46 41.859701 -123.227255 183 35247ft 445kts
09-Jun-20 19:47 41.735587 -123.222778 183 35247ft 446kts
09-Jun-20 19:48 41.611245 -123.218267 184 35247ft 444kts
09-Jun-20 19:49 41.487702 -123.214026 184 35247ft 443kts
09-Jun-20 19:50 41.363817 -123.209760 184 35247ft 443kts
09-Jun-20 19:51 41.240382 -123.206294 185 35247ft 441kts
09-Jun-20 19:52 41.117038 -123.203215 185 35246ft 441kts
09-Jun-20 19:53 40.994564 -123.200138 185 35247ft 439kts
09-Jun-20 19:54 40.877845 -123.197220 185 35247ft 438kts
09-Jun-20 19:55 40.755438 -123.194154 185 35242ft 438kts
09-Jun-20 19:56 40.633779 -123.191107 185 35221ft 436kts
09-Jun-20 19:57 40.511971 -123.188082 186 35219ft 436kts
09-Jun-20 19:58 40.390576 -123.185048 186 35219ft 435kts
09-Jun-20 19:59 40.269292 -123.182035 186 35217ft 435kts
09-Jun-20 20:00 40.147819 -123.179062 186 35211ft 432kts
09-Jun-20 20:01 40.026896 -123.176132 186 35210ft 437kts
09-Jun-20 20:02 39.906178 -123.172278 185 35210ft 433kts
09-Jun-20 20:03 39.786004 -123.166555 185 35210ft 435kts
09-Jun-20 20:04 39.664971 -123.160902 185 35209ft 434kts
09-Jun-20 20:05 39.544061 -123.155317 185 35177ft 436kts
09-Jun-20 20:06 39.422496 -123.149734 184 35164ft 436kts
09-Jun-20 20:07 39.301503 -123.144192 184 35164ft 437kts
09-Jun-20 20:08 39.180398 -123.138659 184 35165ft 436kts
09-Jun-20 20:09 39.060686 -123.105019 161 35163ft 459kts
09-Jun-20 20:10 38.950659 -123.020290 155 35141ft 461kts
09-Jun-20 20:11 38.837090 -122.957373 168 34415ft 453kts
09-Jun-20 20:12 38.718390 -122.915146 171 31831ft 457kts
09-Jun-20 20:13 38.598320 -122.877713 171 29051ft 444kts
09-Jun-20 20:14 38.483371 -122.843307 171 26730ft 427kts
09-Jun-20 20:15 38.370044 -122.809893 170 24452ft 410kts
09-Jun-20 20:16 38.261178 -122.777969 170 22284ft 394kts
09-Jun-20 20:17 38.156560 -122.747518 169 20167ft 381kts
09-Jun-20 20:18 38.057919 -122.718907 169 18163ft 352kts
09-Jun-20 20:19 37.958238 -122.690104 168 15536ft 367kts
09-Jun-20 20:20 37.868417 -122.639776 141 13595ft 352kts
09-Jun-20 20:21 37.796590 -122.564156 139 11745ft 311kts
09-Jun-20 20:23 37.724196 -122.487493 138 11011ft 285kts
09-Jun-20 20:23 37.672448 -122.432417 138 10999ft 297kts
09-Jun-20 20:24 37.615776 -122.372230 138 11000ft 250kts
09-Jun-20 20:25 37.555098 -122.329887 152 10342ft 250kts
09-Jun-20 20:26 37.494523 -122.291212 149 9404ft 246kts
09-Jun-20 20:27 37.456863 -122.224017 118 7734ft 236kts
09-Jun-20 20:28 37.432489 -122.151812 75 5474ft 225kts
09-Jun-20 20:29 37.472111 -122.094570 26 3993ft 221kts
09-Jun-20 20:30 37.512671 -122.131565 284 3996ft 216kts
09-Jun-20 20:31 37.536301 -122.189127 310 3196ft 175kts
09-Jun-20 20:33 37.585833 -122.291440 298 1311ft 137kts
09-Jun-20 20:34 37.602480 -122.331102 296 583ft 130kts
09-Jun-20 20:35 37.617655 -122.367105 298 19ft 68kts
09-Jun-20 20:36 37.621853 -122.377759 282 19ft 30kts
09-Jun-20 20:37 37.620385 -122.383342 154 19ft 12kts
09-Jun-20 20:38 37.618732 -122.380096 136 19ft 14kts
09-Jun-20 20:39 37.615752 -122.380841 284 19ft 13kts
09-Jun-20 20:40 37.616623 -122.381285 9 19ft 0kts
09-Jun-20 20:41 37.616623 -122.381285 9 19ft 0kts
09-Jun-20 20:42 37.616623 -122.381285 9 19ft 0kts
09-Jun-20 20:43 37.616623 -122.381285 9 19ft 0kts
09-Jun-20 20:44 37.616623 -122.381285 9 19ft 0kts
09-Jun-20 20:45 37.616623 -122.381285 9 19ft 0kts
09-Jun-20 20:46 37.616623 -122.381285 9 19ft 0kts
09-Jun-20 20:47 37.616623 -122.381285 9 19ft 0kts
09-Jun-20 20:48 37.610438 -122.349864 295 195ft 121kts
09-Jun-20 20:49 37.616623 -122.381285 9 19ft 0kts
09-Jun-20 20:50 37.616623 -122.381285 9 19ft 0kts

Navigation Log

Ident Type
Flight plan parsing failed, navigation log unavailable